createdAt,value
2019-02-04T03:06:03.778Z,99.99
2019-02-04T03:07:03.582Z,99.99
2019-02-04T03:08:03.605Z,99.99
2019-02-04T03:09:03.500Z,99.99
2019-02-04T03:10:03.489Z,99.99
2019-02-04T03:11:03.526Z,99.99
2019-02-04T03:12:03.581Z,99.99
2019-02-04T03:13:03.500Z,99.99
2019-02-04T03:14:03.388Z,99.99
2019-02-04T03:15:03.404Z,99.99
2019-02-04T03:16:03.327Z,99.99
2019-02-04T03:17:03.426Z,99.99
2019-02-04T03:18:03.491Z,99.99
2019-02-04T03:19:03.266Z,99.99
2019-02-04T03:20:03.247Z,99.99
2019-02-04T03:21:03.204Z,99.99
2019-02-04T03:22:03.449Z,99.99
2019-02-04T03:23:03.420Z,99.99
2019-02-04T03:24:03.138Z,99.99
2019-02-04T03:25:03.097Z,99.99
2019-02-04T03:26:03.109Z,99.99
2019-02-04T03:27:03.078Z,99.99
2019-02-04T03:28:03.144Z,99.99
2019-02-04T03:29:02.981Z,99.99
2019-02-04T03:30:03.142Z,99.99
2019-02-04T03:31:02.936Z,99.99
2019-02-04T03:32:02.941Z,99.99
2019-02-04T03:33:03.041Z,99.99
2019-02-04T03:34:02.849Z,99.99
2019-02-04T03:35:02.854Z,99.99
2019-02-04T03:36:02.849Z,99.99
2019-02-04T03:37:02.806Z,99.99
2019-02-04T03:38:02.807Z,99.99
2019-02-04T03:39:02.843Z,99.99
2019-02-04T03:40:02.715Z,99.99
2019-02-04T03:41:02.664Z,99.99
2019-02-04T03:42:02.684Z,99.99
2019-02-04T03:43:02.651Z,99.99
2019-02-04T03:44:02.744Z,99.99
2019-02-04T03:45:02.626Z,99.99
2019-02-04T03:46:02.562Z,99.99
2019-02-04T03:47:02.523Z,99.99
2019-02-04T03:48:09.564Z,99.99
2019-02-04T03:49:02.601Z,99.99
2019-02-04T03:50:02.489Z,99.99
2019-02-04T03:51:02.428Z,99.99
2019-02-04T03:52:02.431Z,99.99
2019-02-04T03:53:02.408Z,99.99
2019-02-04T03:54:02.351Z,99.99
2019-02-04T03:55:02.495Z,99.99
2019-02-04T03:56:02.392Z,99.99
2019-02-04T03:57:02.388Z,99.99
2019-02-04T03:58:02.290Z,99.99
2019-02-04T03:59:02.216Z,99.99
2019-02-04T04:00:02.212Z,99.99
2019-02-04T04:01:02.277Z,99.99
2019-02-04T04:02:02.171Z,99.99
2019-02-04T04:03:02.225Z,99.99
2019-02-04T04:04:02.106Z,99.99
2019-02-04T04:05:02.090Z,99.99
2019-02-04T04:06:02.167Z,99.99
2019-02-04T04:07:02.095Z,99.99
2019-02-04T04:08:02.025Z,99.99
2019-02-04T04:09:02.004Z,99.99
2019-02-04T04:10:01.947Z,99.99
2019-02-04T04:11:01.973Z,99.99
2019-02-04T04:12:01.985Z,99.99
2019-02-04T04:13:01.968Z,99.99
2019-02-04T04:14:02.017Z,99.99
2019-02-04T04:15:01.928Z,99.99
2019-02-04T04:16:01.781Z,99.99
2019-02-04T04:17:01.873Z,99.99
2019-02-04T04:18:01.770Z,99.99
2019-02-04T04:19:01.743Z,99.99
2019-02-04T04:20:01.685Z,99.99
2019-02-04T04:21:01.685Z,99.99
2019-02-04T04:22:01.751Z,99.99
2019-02-04T04:23:01.584Z,99.99
2019-02-04T04:24:01.677Z,99.99
2019-02-04T04:25:01.591Z,99.99
2019-02-04T04:26:01.633Z,99.99
2019-02-04T04:27:01.633Z,99.99
2019-02-04T04:28:01.482Z,99.99
2019-02-04T04:29:01.472Z,99.99
2019-02-04T04:30:01.427Z,99.99
2019-02-04T04:31:01.407Z,99.99
2019-02-04T04:32:01.370Z,99.99
2019-02-04T04:33:01.498Z,99.99
2019-02-04T04:34:01.441Z,99.99
2019-02-04T04:35:01.308Z,99.99
2019-02-04T04:36:01.268Z,99.99
2019-02-04T04:37:01.229Z,99.99
2019-02-04T04:38:01.304Z,99.99
2019-02-04T04:39:01.168Z,99.99
2019-02-04T04:40:01.186Z,99.99
2019-02-04T04:41:01.108Z,99.99
2019-02-04T04:42:01.098Z,99.99
2019-02-04T04:43:01.191Z,99.99
2019-02-04T04:44:01.046Z,99.99
2019-02-04T04:45:01.054Z,99.99
2019-02-04T04:46:00.988Z,99.99
2019-02-04T04:47:00.960Z,99.99
2019-02-04T04:48:00.998Z,99.99
2019-02-04T04:49:01.034Z,99.99
2019-02-04T04:50:00.954Z,99.99
2019-02-04T04:51:00.875Z,99.99
2019-02-04T04:52:00.862Z,99.99
2019-02-04T04:53:00.888Z,99.99
2019-02-04T04:54:00.921Z,99.99
2019-02-04T04:55:00.805Z,99.99
2019-02-04T04:56:00.784Z,99.99
2019-02-04T04:57:00.731Z,99.99
2019-02-04T04:58:00.702Z,99.99
2019-02-04T04:59:00.772Z,99.99
2019-02-04T05:00:00.662Z,99.99
2019-02-04T05:01:00.652Z,99.99
2019-02-04T05:02:00.675Z,99.99
2019-02-04T05:03:00.566Z,99.99
2019-02-04T05:04:00.659Z,99.99
2019-02-04T05:05:00.505Z,99.99
2019-02-04T05:06:00.526Z,99.99
2019-02-04T05:07:00.738Z,99.99
2019-02-04T05:08:00.416Z,99.99
2019-02-04T05:09:00.399Z,99.99
2019-02-04T05:10:00.486Z,99.99
2019-02-04T05:11:00.350Z,99.99
2019-02-04T05:12:00.328Z,99.99
2019-02-04T05:13:00.297Z,99.99
2019-02-04T05:14:00.417Z,99.99
2019-02-04T05:15:00.356Z,99.99
2019-02-04T05:16:00.215Z,99.99
2019-02-04T05:17:00.209Z,99.99
2019-02-04T05:18:00.176Z,99.99
2019-02-04T05:19:00.166Z,99.99
2019-02-04T05:20:00.290Z,99.99
2019-02-04T05:21:00.167Z,99.99
2019-02-04T05:22:00.069Z,99.99
2019-02-04T05:23:00.049Z,99.99
2019-02-04T05:24:00.021Z,99.99
2019-02-04T05:24:59.991Z,99.99
2019-02-04T05:25:59.996Z,99.99
2019-02-04T05:27:00.041Z,99.99
2019-02-04T05:27:59.912Z,99.99
2019-02-04T05:28:59.850Z,99.99
2019-02-04T05:29:59.888Z,99.99
2019-02-04T05:30:59.906Z,99.99
2019-02-04T05:31:59.913Z,99.99
2019-02-04T05:32:59.812Z,99.99
2019-02-04T05:33:59.752Z,99.99
2019-02-04T05:34:59.730Z,99.99
2019-02-04T05:35:59.732Z,99.99
2019-02-04T05:36:59.804Z,99.99
2019-02-04T05:37:59.680Z,99.99
2019-02-04T05:38:59.641Z,99.99
2019-02-04T05:39:59.592Z,99.99
2019-02-04T05:40:59.602Z,99.99
2019-02-04T05:41:59.639Z,99.99
2019-02-04T05:42:59.485Z,99.99
2019-02-04T05:43:59.463Z,99.99
2019-02-04T05:44:59.466Z,99.99
2019-02-04T05:45:59.436Z,99.99
2019-02-04T05:46:59.408Z,99.99
2019-02-04T05:47:59.524Z,99.99
2019-02-04T05:48:59.396Z,99.99
2019-02-04T05:49:59.316Z,99.99
2019-02-04T05:50:59.375Z,99.99
2019-02-04T05:51:59.261Z,99.99
2019-02-04T05:52:59.257Z,99.99
2019-02-04T05:53:59.302Z,99.99
2019-02-04T05:54:59.200Z,99.99
2019-02-04T05:55:59.154Z,99.99
2019-02-04T05:56:59.179Z,99.99
2019-02-04T05:57:59.109Z,99.99
2019-02-04T05:58:59.066Z,99.99
2019-02-04T05:59:59.169Z,99.99
2019-02-04T06:00:59.029Z,99.99
2019-02-04T06:01:58.988Z,99.99
2019-02-04T06:02:58.987Z,99.99
2019-02-04T06:03:58.935Z,99.99
2019-02-04T06:04:59.026Z,99.99
2019-02-04T06:05:58.970Z,99.99
2019-02-04T06:06:58.891Z,99.99
2019-02-04T06:07:58.841Z,99.99
2019-02-04T06:08:58.832Z,99.99
2019-02-04T06:09:58.903Z,99.99
2019-02-04T06:10:58.772Z,99.99
2019-02-04T06:11:58.734Z,99.99
2019-02-04T06:12:58.836Z,99.99
2019-02-04T06:13:58.692Z,99.99
2019-02-04T06:14:58.742Z,99.99
2019-02-04T06:15:58.629Z,99.99
2019-02-04T06:16:58.621Z,99.99
2019-02-04T06:17:58.603Z,99.99
2019-02-04T06:19:00.885Z,99.99
2019-02-04T06:19:58.651Z,99.99
2019-02-04T06:20:58.540Z,99.99
2019-02-04T06:21:58.478Z,99.99
2019-02-04T06:22:58.484Z,99.99
2019-02-04T06:23:58.464Z,99.99
2019-02-04T06:24:58.390Z,99.99
2019-02-04T06:25:58.494Z,99.99
2019-02-04T06:26:58.340Z,99.99
2019-02-04T06:27:58.345Z,99.99
2019-02-04T06:28:58.298Z,99.99
2019-02-04T06:29:58.255Z,99.99
2019-02-04T06:30:58.297Z,99.99
2019-02-04T06:31:58.301Z,99.99
2019-02-04T06:32:58.181Z,99.99
2019-02-04T06:33:58.179Z,99.99
2019-02-04T06:34:58.111Z,99.99
2019-02-04T06:35:58.146Z,99.99
2019-02-04T06:36:58.198Z,99.99
2019-02-04T06:37:58.053Z,99.99
2019-02-04T06:38:58.010Z,99.99
2019-02-04T06:39:58.025Z,99.99
2019-02-04T06:40:57.953Z,99.99
2019-02-04T06:41:58.035Z,99.99
2019-02-04T06:42:57.915Z,99.99
2019-02-04T06:43:57.876Z,99.99
2019-02-04T06:44:57.889Z,99.99
2019-02-04T06:45:57.833Z,99.99
2019-02-04T06:46:57.908Z,99.99
2019-02-04T06:47:57.792Z,99.99
2019-02-04T06:48:57.769Z,99.99
2019-02-04T06:49:57.747Z,99.99
2019-02-04T06:50:57.703Z,99.99
2019-02-04T06:51:57.783Z,99.99
2019-02-04T06:52:57.649Z,99.99
2019-02-04T06:53:57.644Z,99.99
2019-02-04T06:54:57.593Z,99.99
2019-02-04T06:55:57.575Z,99.99
2019-02-04T06:56:57.670Z,99.99
2019-02-04T06:57:57.534Z,99.99
2019-02-04T06:58:57.511Z,99.99
2019-02-04T06:59:57.453Z,99.99
2019-02-04T07:00:57.455Z,99.99
2019-02-04T07:01:57.811Z,99.99
2019-02-04T07:02:57.495Z,99.99
2019-02-04T07:03:57.334Z,99.99
2019-02-04T07:04:57.319Z,99.99
2019-02-04T07:05:57.283Z,99.99
2019-02-04T07:06:57.263Z,99.99
2019-02-04T07:07:57.260Z,99.99
2019-02-04T07:08:57.339Z,99.99
2019-02-04T07:09:57.217Z,99.99
2019-02-04T07:10:57.179Z,99.99
2019-02-04T07:11:57.170Z,99.99
2019-02-04T07:12:57.097Z,99.99
2019-02-04T07:13:57.190Z,99.99
2019-02-04T07:14:57.052Z,99.99
2019-02-04T07:15:57.055Z,99.99
2019-02-04T07:16:57.020Z,99.99
2019-02-04T07:18:01.569Z,99.99
2019-02-04T07:18:57.058Z,99.99
2019-02-04T07:19:56.933Z,99.99
2019-02-04T07:20:56.894Z,99.99
2019-02-04T07:21:56.883Z,99.99
2019-02-04T07:22:56.843Z,99.99
2019-02-04T07:23:56.939Z,99.99
2019-02-04T07:24:56.802Z,99.99
2019-02-04T07:25:56.798Z,99.99
2019-02-04T07:26:56.752Z,99.99
2019-02-04T07:27:56.713Z,99.99
2019-02-04T07:28:56.794Z,99.99
2019-02-04T07:29:56.700Z,99.99
2019-02-04T07:30:56.643Z,99.99
2019-02-04T07:31:56.610Z,99.99
2019-02-04T07:32:56.594Z,99.99
2019-02-04T07:33:56.671Z,99.99
2019-02-04T07:34:56.532Z,99.99
2019-02-04T07:35:56.520Z,99.99
2019-02-04T07:36:56.491Z,99.99
2019-02-04T07:37:56.485Z,99.99
2019-02-04T07:38:56.439Z,99.99
2019-02-04T07:39:56.514Z,99.99
2019-02-04T07:40:56.386Z,99.99
2019-02-04T07:41:56.356Z,99.99
2019-02-04T07:42:56.319Z,99.99
2019-02-04T07:43:56.316Z,99.99
2019-02-04T07:44:56.304Z,99.99
2019-02-04T07:45:56.348Z,99.99
2019-02-04T07:46:56.227Z,99.99
2019-02-04T07:47:56.165Z,99.99
2019-02-04T07:48:56.167Z,99.99
2019-02-04T07:49:56.141Z,99.99
2019-02-04T07:50:56.215Z,99.99
2019-02-04T07:51:56.088Z,99.99
2019-02-04T07:52:56.035Z,99.99
2019-02-04T07:53:56.039Z,99.99
2019-02-04T07:54:56.002Z,99.99
2019-02-04T07:55:56.079Z,99.99
2019-02-04T07:56:55.953Z,99.99
2019-02-04T07:57:57.317Z,99.99
2019-02-04T07:58:55.900Z,99.99
2019-02-04T07:59:55.872Z,99.99
2019-02-04T08:00:55.940Z,99.99
2019-02-04T08:01:55.848Z,99.99
2019-02-04T08:02:55.804Z,99.99
2019-02-04T08:03:55.755Z,99.99
2019-02-04T08:04:55.748Z,99.99
2019-02-04T08:05:55.952Z,99.99
2019-02-04T08:06:55.682Z,99.99
2019-02-04T08:07:55.670Z,99.99
2019-02-04T08:08:55.633Z,99.99
2019-02-04T08:09:55.595Z,99.99
2019-02-04T08:10:55.664Z,99.99
2019-02-04T08:11:55.553Z,99.99
2019-02-04T08:13:01.405Z,99.99
2019-02-04T08:13:55.480Z,99.99
2019-02-04T08:14:55.474Z,99.99
2019-02-04T08:15:55.454Z,99.99
2019-02-04T08:16:55.499Z,99.99
2019-02-04T08:17:55.407Z,99.99
2019-02-04T08:18:55.365Z,99.99
2019-02-04T08:19:55.325Z,99.99
2019-02-04T08:20:55.315Z,99.99
2019-02-04T08:21:55.271Z,99.99
2019-02-04T08:22:55.351Z,99.99
2019-02-04T08:23:55.209Z,99.99
2019-02-04T08:24:55.198Z,99.99
2019-02-04T08:25:55.166Z,99.99
2019-02-04T08:26:55.161Z,99.99
2019-02-04T08:27:55.228Z,99.99
2019-02-04T08:28:55.081Z,99.99
2019-02-04T08:29:55.063Z,99.99
2019-02-04T08:30:55.048Z,99.99
2019-02-04T08:31:55.002Z,99.99
2019-02-04T08:32:55.060Z,99.99
2019-02-04T08:33:54.947Z,99.99
2019-02-04T08:34:54.917Z,99.99
2019-02-04T08:35:54.895Z,99.99
2019-02-04T08:36:54.882Z,99.99
2019-02-04T08:37:54.969Z,99.99
2019-02-04T08:38:54.837Z,99.99
2019-02-04T08:39:54.779Z,99.99
2019-02-04T08:40:54.756Z,99.99
2019-02-04T08:41:54.759Z,99.99
2019-02-04T08:42:54.855Z,99.99
2019-02-04T08:43:54.686Z,99.99
2019-02-04T08:44:54.679Z,99.99
2019-02-04T08:45:54.648Z,99.99
2019-02-04T08:46:54.581Z,99.99
2019-02-04T08:47:54.712Z,99.99
2019-02-04T08:48:54.663Z,99.99
2019-02-04T08:49:58.444Z,99.99
2019-02-04T08:50:54.510Z,99.99
2019-02-04T08:51:54.476Z,99.99
2019-02-04T08:52:54.444Z,99.99
2019-02-04T08:53:54.425Z,99.99
2019-02-04T08:54:54.504Z,99.99
2019-02-04T08:55:54.342Z,99.99
2019-02-04T08:56:54.347Z,99.99
2019-02-04T08:57:54.295Z,99.99
2019-02-04T08:58:54.368Z,99.99
2019-02-04T08:59:54.276Z,99.99
2019-02-04T09:00:54.352Z,99.99
2019-02-04T09:01:54.187Z,99.99
2019-02-04T09:02:54.205Z,99.99
2019-02-04T09:03:54.163Z,99.99
2019-02-04T09:04:54.135Z,99.99
2019-02-04T09:05:54.191Z,99.99
2019-02-04T09:06:54.088Z,99.99
2019-02-04T09:07:54.054Z,99.99
2019-02-04T09:08:54.026Z,99.99
2019-02-04T09:09:53.982Z,99.99
2019-02-04T09:10:54.065Z,99.99
2019-02-04T09:11:53.947Z,99.99
2019-02-04T09:12:53.910Z,99.99
2019-02-04T09:13:53.889Z,99.99
2019-02-04T09:14:53.868Z,99.99
2019-02-04T09:15:53.915Z,99.99
2019-02-04T09:16:53.810Z,99.99
2019-02-04T09:17:53.762Z,99.99
2019-02-04T09:18:53.760Z,99.99
2019-02-04T09:19:53.728Z,99.99
2019-02-04T09:20:53.711Z,99.99
2019-02-04T09:21:53.790Z,99.99
2019-02-04T09:22:53.619Z,99.99
2019-02-04T09:23:53.589Z,99.99
2019-02-04T09:24:53.593Z,99.99
2019-02-04T09:25:53.540Z,99.99
2019-02-04T09:26:53.710Z,99.99
2019-02-04T09:27:53.599Z,99.99
2019-02-04T09:28:53.492Z,99.99
2019-02-04T09:29:53.559Z,99.99
2019-02-04T09:30:53.442Z,99.99
2019-02-04T09:31:53.388Z,99.99
2019-02-04T09:32:53.346Z,99.99
2019-02-04T09:33:53.413Z,99.99
2019-02-04T09:34:53.304Z,99.99
2019-02-04T09:35:53.292Z,99.99
2019-02-04T09:36:53.302Z,99.99
2019-02-04T09:37:53.227Z,99.99
2019-02-04T09:38:53.289Z,99.99
2019-02-04T09:39:53.170Z,99.99
2019-02-04T09:40:53.140Z,99.99
2019-02-04T09:41:53.139Z,99.99
2019-02-04T09:42:53.082Z,99.99
2019-02-04T09:43:53.177Z,99.99
2019-02-04T09:44:53.076Z,99.99
2019-02-04T09:45:53.130Z,99.99
2019-02-04T09:46:52.999Z,99.99
2019-02-04T09:47:52.969Z,99.99
2019-02-04T09:48:53.017Z,99.99
2019-02-04T09:49:52.894Z,99.99
2019-02-04T09:50:52.873Z,99.99
2019-02-04T09:51:52.879Z,99.99
2019-02-04T09:52:52.846Z,99.99
2019-02-04T09:53:52.893Z,99.99
2019-02-04T09:54:52.768Z,99.99
2019-02-04T09:55:52.754Z,99.99
2019-02-04T09:56:52.690Z,99.99
2019-02-04T09:57:52.681Z,99.99
2019-02-04T09:58:52.720Z,99.99
2019-02-04T09:59:52.780Z,99.99
2019-02-04T10:00:52.622Z,99.99
2019-02-04T10:01:52.582Z,99.99
2019-02-04T10:04:56.883Z,99.99
2019-02-04T10:05:56.769Z,99.99
2019-02-04T10:06:56.750Z,99.99
2019-02-04T10:07:56.725Z,99.99
2019-02-04T10:08:56.733Z,99.99
2019-02-04T10:09:58.950Z,99.99
2019-02-04T10:10:56.724Z,99.99
2019-02-04T10:11:56.577Z,99.99
2019-02-04T10:12:56.552Z,99.99
2019-02-04T10:13:56.538Z,99.99
2019-02-04T10:14:56.535Z,99.99
2019-02-04T10:15:56.596Z,99.99
2019-02-04T10:16:56.514Z,99.99
2019-02-04T10:17:56.454Z,99.99
2019-02-04T10:18:56.405Z,99.99
2019-02-04T10:19:56.408Z,99.99
2019-02-04T10:20:56.381Z,99.99
2019-02-04T10:21:56.429Z,99.99
2019-02-04T10:22:56.353Z,99.99
2019-02-04T10:23:56.304Z,99.99
2019-02-04T10:24:56.216Z,99.99
2019-02-04T10:25:56.226Z,99.99
2019-02-04T10:26:56.318Z,99.99
2019-02-04T10:27:56.216Z,99.99
2019-02-04T10:28:56.124Z,99.99
2019-02-04T10:29:56.149Z,99.99
2019-02-04T10:30:56.124Z,99.99
2019-02-04T10:31:56.166Z,99.99
2019-02-04T10:32:56.034Z,99.99
2019-02-04T10:33:56.006Z,99.99
2019-02-04T10:34:55.972Z,99.99
2019-02-04T10:35:55.958Z,99.99
2019-02-04T10:36:56.018Z,99.99
2019-02-04T10:37:55.899Z,99.99
2019-02-04T10:38:55.858Z,99.99
2019-02-04T10:39:55.842Z,99.99
2019-02-04T10:40:55.805Z,99.99
2019-02-04T10:41:55.826Z,99.99
2019-02-04T10:42:55.872Z,99.99
2019-02-04T10:43:55.709Z,99.99
2019-02-04T10:44:55.708Z,99.99
2019-02-04T10:45:55.789Z,99.99
2019-02-04T10:46:55.704Z,99.99
2019-02-04T10:47:55.806Z,99.99
2019-02-04T10:48:55.585Z,99.99
2019-02-04T10:49:55.570Z,99.99
2019-02-04T10:50:55.616Z,99.99
2019-02-04T10:51:55.551Z,99.99
2019-02-04T10:52:55.581Z,99.99
2019-02-04T10:53:55.483Z,99.99
2019-02-04T10:54:55.446Z,99.99
2019-02-04T10:55:55.452Z,99.99
2019-02-04T10:56:55.588Z,99.99
2019-02-04T10:57:55.331Z,99.99
2019-02-04T10:58:55.512Z,99.99
2019-02-04T10:59:55.311Z,99.99
2019-02-04T11:00:55.278Z,99.99
2019-02-04T11:01:55.227Z,99.99
2019-02-04T11:02:55.212Z,99.99
2019-02-04T11:03:55.293Z,99.99
2019-02-04T11:04:55.168Z,99.99
2019-02-04T11:05:55.142Z,99.99
2019-02-04T11:06:55.140Z,99.99
2019-02-04T11:07:55.095Z,99.99
2019-02-04T11:08:55.116Z,99.99
2019-02-04T11:09:55.055Z,99.99
2019-02-04T11:10:55.041Z,99.99
2019-02-04T11:11:54.974Z,99.99
2019-02-04T11:12:54.991Z,99.99
2019-02-04T11:13:54.974Z,99.99
2019-02-04T11:14:55.048Z,99.99
2019-02-04T11:15:54.861Z,99.99
2019-02-04T11:16:54.821Z,99.99
2019-02-04T11:17:54.779Z,99.99
2019-02-04T11:18:54.815Z,99.99
2019-02-04T11:19:54.842Z,99.99
2019-02-04T11:20:58.176Z,99.99
2019-02-04T11:21:54.690Z,99.99
2019-02-04T11:22:54.713Z,99.99
2019-02-04T11:23:54.637Z,99.99
2019-02-04T11:24:54.764Z,99.99
2019-02-04T11:25:54.646Z,99.99
2019-02-04T11:26:54.559Z,99.99
2019-02-04T11:27:54.519Z,99.99
2019-02-04T11:28:54.553Z,99.99
2019-02-04T11:29:54.487Z,99.99
2019-02-04T11:30:54.614Z,99.99
2019-02-04T11:31:54.447Z,99.99
2019-02-04T11:32:54.397Z,99.99
2019-02-04T11:33:54.412Z,99.99
2019-02-04T11:34:54.341Z,99.99
2019-02-04T11:35:54.368Z,99.99
2019-02-04T11:36:54.414Z,99.99
2019-02-04T11:37:54.268Z,99.99
2019-02-04T11:38:54.291Z,99.99
2019-02-04T11:39:54.238Z,99.99
2019-02-04T11:40:54.199Z,99.99
2019-02-04T11:41:54.273Z,99.99
2019-02-04T11:42:54.159Z,99.99
2019-02-04T11:43:54.115Z,99.99
2019-02-04T11:44:54.047Z,99.99
2019-02-04T11:45:55.082Z,99.99
2019-02-04T11:46:54.096Z,99.99
2019-02-04T11:47:54.121Z,99.99
2019-02-04T11:48:53.951Z,99.99
2019-02-04T11:49:53.940Z,99.99
2019-02-04T11:50:53.948Z,99.99
2019-02-04T11:51:53.868Z,99.99
2019-02-04T11:52:53.972Z,99.99
2019-02-04T11:53:53.826Z,99.99
2019-02-04T11:54:53.829Z,99.99
2019-02-04T11:55:53.795Z,99.99
2019-02-04T11:56:53.854Z,99.99
2019-02-04T11:57:53.858Z,99.99
2019-02-04T11:58:53.709Z,99.99
2019-02-04T11:59:53.676Z,99.99
2019-02-04T12:00:53.924Z,99.99
2019-02-04T12:01:54.043Z,99.99
2019-02-04T12:02:53.759Z,99.99
2019-02-04T12:03:53.564Z,99.99
2019-02-04T12:04:53.528Z,99.99
2019-02-04T12:05:53.511Z,99.99
2019-02-04T12:06:53.484Z,99.99
2019-02-04T12:07:53.436Z,99.99
2019-02-04T12:08:53.564Z,99.99
2019-02-04T12:09:53.442Z,99.99
2019-02-04T12:10:53.383Z,99.99
2019-02-04T12:11:55.655Z,99.99
2019-02-04T12:12:53.306Z,99.99
2019-02-04T12:13:53.282Z,99.99
2019-02-04T12:14:53.345Z,99.99
2019-02-04T12:15:53.249Z,99.99
2019-02-04T12:16:53.220Z,99.99
2019-02-04T12:17:53.165Z,99.99
2019-02-04T12:18:53.149Z,99.99
2019-02-04T12:19:53.188Z,99.99
2019-02-04T12:20:53.179Z,99.99
2019-02-04T12:21:53.088Z,99.99
2019-02-04T12:22:53.073Z,99.99
2019-02-04T12:23:53.026Z,99.99
2019-02-04T12:24:52.977Z,99.99
2019-02-04T12:25:53.067Z,99.99
2019-02-04T12:26:53.073Z,99.99
2019-02-04T12:27:52.931Z,99.99
2019-02-04T12:28:52.878Z,99.99
2019-02-04T12:29:52.863Z,99.99
2019-02-04T12:30:52.819Z,99.99
2019-02-04T12:31:52.929Z,99.99
2019-02-04T12:32:52.781Z,99.99
2019-02-04T12:33:52.792Z,99.99
2019-02-04T12:34:52.709Z,99.99
2019-02-04T12:35:52.696Z,99.99
2019-02-04T12:36:52.798Z,99.99
2019-02-04T12:37:52.643Z,99.99
2019-02-04T12:38:52.622Z,99.99
2019-02-04T12:39:52.584Z,99.99
2019-02-04T12:40:52.551Z,99.99
2019-02-04T12:41:52.646Z,99.99
2019-02-04T12:42:52.527Z,99.99
2019-02-04T12:43:52.486Z,99.99
2019-02-04T12:44:52.457Z,99.99
2019-02-04T12:45:52.476Z,99.99
2019-02-04T12:46:52.383Z,99.99
2019-02-04T12:47:52.475Z,99.99
2019-02-04T12:48:52.432Z,99.99
2019-02-04T12:49:52.395Z,99.99
2019-02-04T12:50:52.306Z,99.99
2019-02-04T12:51:52.285Z,99.99
2019-02-04T12:52:52.273Z,99.99
2019-02-04T12:53:52.312Z,99.99
2019-02-04T12:54:52.449Z,99.99
2019-02-04T12:55:52.150Z,99.99
2019-02-04T12:56:52.132Z,99.99
2019-02-04T12:57:52.118Z,99.99
2019-02-04T12:58:55.657Z,99.99
2019-02-04T12:59:52.169Z,99.99
2019-02-04T13:00:52.058Z,99.99
2019-02-04T13:01:52.003Z,99.99
2019-02-04T13:02:51.969Z,99.99
2019-02-04T13:03:51.953Z,99.99
2019-02-04T13:04:52.079Z,99.99
2019-02-04T13:05:51.919Z,99.99
2019-02-04T13:06:51.910Z,99.99
2019-02-04T13:07:51.901Z,99.99
2019-02-04T13:08:51.874Z,99.99
2019-02-04T13:09:51.894Z,99.99
2019-02-04T13:10:51.760Z,99.99
2019-02-04T13:11:51.752Z,98.83
2019-02-04T13:12:51.709Z,99.02
2019-02-04T13:13:54.324Z,98.73
2019-02-04T13:14:54.324Z,99.27
2019-02-04T13:15:53.359Z,98.30
2019-02-04T13:16:53.307Z,99.99
2019-02-04T13:17:53.424Z,99.36
2019-02-04T13:18:51.583Z,99.36
2019-02-04T13:19:51.544Z,99.99
2019-02-04T13:20:51.614Z,99.99
2019-02-04T13:21:51.651Z,98.49
2019-02-04T13:22:51.591Z,98.58
2019-02-04T13:23:51.440Z,97.38
2019-02-04T13:24:51.424Z,99.22
2019-02-04T13:25:51.460Z,98.54
2019-02-04T13:26:51.537Z,98.54
2019-02-04T13:27:51.466Z,98.44
2019-02-04T13:28:51.329Z,98.63
2019-02-04T13:29:51.313Z,97.61
2019-02-04T13:30:51.260Z,95.97
2019-02-04T13:31:51.274Z,97.42
2019-02-04T13:32:51.347Z,99.55
2019-02-04T13:33:51.287Z,97.42
2019-02-04T13:34:51.207Z,94.90
2019-02-04T13:35:51.208Z,95.67
2019-02-04T13:36:51.136Z,96.11
2019-02-04T13:37:51.235Z,96.11
2019-02-04T13:38:51.047Z,96.79
2019-02-04T13:39:51.050Z,95.82
2019-02-04T13:40:50.988Z,96.01
2019-02-04T13:41:51.000Z,94.95
2019-02-04T13:42:51.109Z,96.06
2019-02-04T13:43:50.936Z,95.48
2019-02-04T13:44:50.921Z,94.51
2019-02-04T13:45:51.234Z,95.87
2019-02-04T13:46:50.939Z,94.70
2019-02-04T13:47:50.942Z,95.53
2019-02-04T13:48:50.833Z,94.07
2019-02-04T13:49:50.933Z,94.46
2019-02-04T13:50:50.772Z,92.71
2019-02-04T13:51:57.560Z,93.19
2019-02-04T13:52:50.786Z,92.41
2019-02-04T13:53:50.883Z,92.61
2019-02-04T13:54:50.684Z,94.02
2019-02-04T13:55:50.770Z,92.75
2019-02-04T13:56:50.753Z,92.36
2019-02-04T13:57:51.009Z,91.92
2019-02-04T13:58:50.607Z,93.38
2019-02-04T13:59:50.704Z,92.41
2019-02-04T14:00:50.557Z,91.34
2019-02-04T14:01:50.527Z,92.41
2019-02-04T14:02:58.906Z,91.14
2019-02-04T14:03:50.538Z,91.14
2019-02-04T14:04:50.405Z,91.63
2019-02-04T14:05:50.498Z,91.48
2019-02-04T14:06:50.383Z,90.61
2019-02-04T14:07:50.560Z,90.22
2019-02-04T14:08:50.724Z,90.80
2019-02-04T14:09:50.413Z,90.99
2019-02-04T14:10:50.315Z,90.02
2019-02-04T14:11:50.282Z,89.34
2019-02-04T14:12:50.410Z,89.43
2019-02-04T14:13:50.336Z,88.37
2019-02-04T14:14:50.330Z,88.85
2019-02-04T14:15:50.206Z,88.85
2019-02-04T14:16:50.124Z,89.34
2019-02-04T14:17:50.104Z,88.37
2019-02-04T14:18:50.256Z,88.27
2019-02-04T14:19:50.240Z,88.85
2019-02-04T14:20:50.104Z,90.02
2019-02-04T14:21:50.113Z,89.43
2019-02-04T14:22:49.967Z,89.97
2019-02-04T14:23:49.948Z,87.39
2019-02-04T14:24:50.046Z,88.07
2019-02-04T14:25:50.004Z,88.51
2019-02-04T14:26:49.957Z,87.05
2019-02-04T14:27:49.985Z,86.85
2019-02-04T14:28:50.120Z,86.99
2019-02-04T14:29:50.136Z,87.67
2019-02-04T14:30:49.895Z,88.49
2019-02-04T14:31:49.930Z,86.21
2019-02-04T14:32:49.849Z,86.25
2019-02-04T14:33:49.766Z,87.13
2019-02-04T14:34:51.426Z,85.57
2019-02-04T14:35:49.731Z,86.45
2019-02-04T14:36:49.686Z,85.18
2019-02-04T14:37:49.645Z,85.91
2019-02-04T14:38:49.671Z,85.52
2019-02-04T14:39:49.852Z,85.13
2019-02-04T14:40:49.593Z,83.76
2019-02-04T14:41:49.501Z,84.15
2019-02-04T14:42:49.832Z,85.71
2019-02-04T14:43:49.585Z,85.32
2019-02-04T14:44:49.659Z,84.74
2019-02-04T14:45:49.568Z,84.54
2019-02-04T14:46:49.435Z,83.76
2019-02-04T14:47:49.512Z,83.02
2019-02-04T14:48:49.441Z,83.61
2019-02-04T14:49:49.467Z,84.78
2019-02-04T14:50:49.341Z,85.07
2019-02-04T14:51:49.600Z,86.24
2019-02-04T14:52:49.344Z,84.88
2019-02-04T14:53:49.329Z,84.92
2019-02-04T14:54:49.278Z,85.60
2019-02-04T14:55:49.450Z,83.94
2019-02-04T14:56:49.344Z,83.75
2019-02-04T14:57:49.173Z,84.96
2019-02-04T14:58:49.173Z,82.62
2019-02-04T14:59:49.191Z,84.28
2019-02-04T15:00:49.137Z,83.11
2019-02-04T15:01:49.237Z,82.23
2019-02-04T15:02:49.059Z,81.89
2019-02-04T15:03:49.042Z,81.60
2019-02-04T15:04:49.004Z,81.70
2019-02-04T15:05:48.986Z,82.87
2019-02-04T15:06:49.081Z,83.84
2019-02-04T15:07:48.942Z,81.79
2019-02-04T15:08:48.932Z,82.38
2019-02-04T15:09:48.880Z,81.89
2019-02-04T15:10:48.872Z,82.48
2019-02-04T15:11:48.960Z,82.09
2019-02-04T15:12:48.829Z,82.97
2019-02-04T15:13:48.798Z,81.70
2019-02-04T15:14:48.923Z,83.98
2019-02-04T15:15:48.776Z,83.01
2019-02-04T15:16:48.794Z,82.52
2019-02-04T15:17:48.724Z,81.93
2019-02-04T15:18:48.672Z,83.69
2019-02-04T15:19:48.691Z,82.52
2019-02-04T15:20:48.802Z,83.59
2019-02-04T15:21:48.746Z,83.20
2019-02-04T15:22:48.602Z,83.89
2019-02-04T15:23:48.596Z,82.71
2019-02-04T15:24:48.575Z,83.53
2019-02-04T15:25:48.520Z,81.74
2019-02-04T15:26:48.646Z,81.45
2019-02-04T15:27:48.616Z,81.48
2019-02-04T15:28:48.503Z,81.77
2019-02-04T15:29:48.464Z,83.92
2019-02-04T15:30:48.441Z,80.21
2019-02-04T15:31:48.907Z,80.21
2019-02-04T15:32:48.398Z,82.95
2019-02-04T15:33:48.442Z,81.03
2019-02-04T15:34:48.421Z,78.65
2019-02-04T15:35:48.298Z,79.24
2019-02-04T15:36:48.369Z,80.21
2019-02-04T15:37:48.289Z,81.03
2019-02-04T15:38:48.413Z,80.25
2019-02-04T15:39:48.223Z,79.57
2019-02-04T15:40:48.195Z,75.66
2019-02-04T15:41:48.167Z,76.83
2019-02-04T15:42:48.157Z,77.87
2019-02-04T15:43:48.263Z,78.85
2019-02-04T15:44:48.080Z,80.35
2019-02-04T15:45:48.121Z,79.76
2019-02-04T15:46:48.097Z,78.78
2019-02-04T15:47:48.088Z,75.37
2019-02-04T15:48:48.132Z,79.32
2019-02-04T15:49:50.725Z,79.21
2019-02-04T15:50:48.000Z,77.55
2019-02-04T15:51:47.956Z,77.84
2019-02-04T15:52:47.972Z,76.22
2019-02-04T15:53:48.023Z,76.97
2019-02-04T15:54:48.016Z,76.93
2019-02-04T15:55:47.895Z,78.88
2019-02-04T15:56:47.880Z,79.33
2019-02-04T15:57:48.068Z,78.36
2019-02-04T15:58:47.914Z,78.94
2019-02-04T15:59:47.866Z,79.86